Time;durP1;ratioP1;P1;durP2;ratioP2;P2;SDS_P1;SDS_P2;PMS_P1;PMS_P2;Temp;Humidity;BMP_temperature;BMP_pressure;BME280_temperature;BME280_humidity;BME280_pressure;Samples;Min_cycle;Max_cycle;Signal;HPM_P1;HPM_P2
2021/11/21 00:01:20;;;;;;;41.85;27.30;;;;;;;7.31;91.84;100975.28;5104714;28;20044;-52
2021/11/21 00:03:48;;;;;;;42.65;27.02;;;;;;;7.35;91.26;100973.25;5095972;28;20059;-52
2021/11/21 00:06:16;;;;;;;39.55;26.67;;;;;;;7.27;91.46;100971.28;5091471;28;20084;-51
2021/11/21 00:08:44;;;;;;;42.42;27.55;;;;;;;7.22;91.63;100970.81;5085699;28;20136;-52
2021/11/21 00:11:10;;;;;;;41.03;26.73;;;;;;;7.21;92.12;100963.97;5091304;28;20044;-53
2021/11/21 00:13:37;;;;;;;41.10;26.70;;;;;;;7.29;91.60;100953.75;5091452;28;20079;-50
2021/11/21 00:16:06;;;;;;;42.83;28.08;;;;;;;7.35;91.56;100955.84;5090905;28;20132;-51
2021/11/21 00:18:33;;;;;;;43.95;27.63;;;;;;;7.29;91.64;100951.16;5090283;28;20075;-48
2021/11/21 00:21:02;;;;;;;37.90;26.75;;;;;;;7.30;91.52;100939.78;5091276;28;20052;-50
2021/11/21 00:23:29;;;;;;;41.88;27.08;;;;;;;7.25;91.83;100936.72;5091481;28;20099;-52
2021/11/21 00:25:56;;;;;;;39.53;27.80;;;;;;;7.27;91.97;100925.25;5091444;28;20048;-51
2021/11/21 00:28:22;;;;;;;44.15;28.27;;;;;;;7.28;91.79;100918.25;5091014;28;20048;-52
2021/11/21 00:30:49;;;;;;;44.22;29.02;;;;;;;7.30;91.73;100913.75;5091500;28;20170;-54
2021/11/21 00:33:16;;;;;;;44.15;28.70;;;;;;;7.24;92.03;100909.06;5091378;28;20614;-49
2021/11/21 00:35:43;;;;;;;44.03;27.85;;;;;;;7.24;91.72;100901.25;5091237;28;20091;-52
2021/11/21 00:38:11;;;;;;;44.75;28.25;;;;;;;7.25;92.47;100900.28;5091181;28;20067;-54
2021/11/21 00:40:38;;;;;;;43.20;28.42;;;;;;;7.25;92.01;100900.28;5090829;28;20048;-48
2021/11/21 00:43:05;;;;;;;45.58;30.42;;;;;;;7.15;92.66;100899.41;5091171;28;20102;-49
2021/11/21 00:45:32;;;;;;;49.03;30.38;;;;;;;7.15;92.49;100896.81;5091164;28;20413;-52
2021/11/21 00:47:59;;;;;;;47.55;30.23;;;;;;;7.09;92.96;100894.75;5090799;28;20106;-51
2021/11/21 00:50:28;;;;;;;53.13;32.20;;;;;;;7.11;92.99;100887.59;5090939;28;20052;-54
2021/11/21 00:53:00;;;;;;;50.17;30.50;;;;;;;7.23;92.73;100877.00;5090725;28;20059;-49
2021/11/21 00:55:38;;;;;;;47.65;29.90;;;;;;;7.33;92.24;100892.69;5098635;28;20104;-49
2021/11/21 00:58:07;;;;;;;49.58;31.42;;;;;;;7.21;92.26;100891.91;5088488;28;20047;-48
2021/11/21 01:00:35;;;;;;;46.08;29.02;;;;;;;7.20;92.28;100887.66;5090692;28;20166;-51
2021/11/21 01:03:02;;;;;;;49.28;30.48;;;;;;;7.14;92.42;100887.34;5090781;28;20098;-53
2021/11/21 01:05:29;;;;;;;45.13;29.63;;;;;;;7.15;92.21;100883.78;5090438;28;20478;-48
2021/11/21 01:07:56;;;;;;;45.90;30.27;;;;;;;7.08;92.50;100882.69;5090436;28;20079;-48
2021/11/21 01:10:24;;;;;;;43.42;29.17;;;;;;;7.14;92.53;100882.13;5090665;28;20126;-47
2021/11/21 01:12:54;;;;;;;48.88;31.27;;;;;;;7.13;92.74;100886.53;5090864;28;20083;-51
2021/11/21 01:15:23;;;;;;;43.72;29.08;;;;;;;7.15;92.43;100883.78;5090938;28;20134;-47
2021/11/21 01:17:52;;;;;;;44.15;29.13;;;;;;;7.27;91.56;100887.97;5090538;28;20051;-49
2021/11/21 01:20:21;;;;;;;44.20;29.20;;;;;;;7.22;92.10;100882.34;5091099;28;20645;-52
2021/11/21 01:22:48;;;;;;;41.97;27.50;;;;;;;7.17;92.19;100880.09;5090956;28;20090;-49
2021/11/21 01:25:16;;;;;;;44.28;28.00;;;;;;;7.14;92.39;100876.94;5091046;28;20490;-53
2021/11/21 01:27:43;;;;;;;47.47;30.30;;;;;;;7.21;92.21;100878.06;5090878;28;20500;-52
2021/11/21 01:30:14;;;;;;;42.97;28.38;;;;;;;7.23;92.17;100881.38;5090704;28;20095;-50
2021/11/21 01:32:41;;;;;;;45.30;29.23;;;;;;;7.20;92.36;100877.25;5090450;28;20086;-51
2021/11/21 01:35:10;;;;;;;44.13;29.45;;;;;;;7.30;92.27;100867.72;5089204;28;20101;-56
2021/11/21 01:37:48;;;;;;;44.55;29.95;;;;;;;7.26;92.68;100861.13;5089036;28;20048;-49
2021/11/21 01:40:23;;;;;;;45.17;28.45;;;;;;;7.25;92.16;100871.66;5089707;28;20056;-49
2021/11/21 01:43:03;;;;;;;44.42;28.73;;;;;;;7.17;92.50;100859.28;5089556;28;20160;-52
2021/11/21 01:45:53;;;;;;;42.67;28.25;;;;;;;7.14;92.71;100856.94;5089015;28;20391;-49
2021/11/21 01:48:21;;;;;;;44.58;28.13;;;;;;;7.12;92.69;100858.03;5089822;28;20131;-55
2021/11/21 01:50:51;;;;;;;44.15;28.58;;;;;;;7.09;92.92;100853.09;5089894;28;20048;-50
2021/11/21 01:53:18;;;;;;;46.75;29.85;;;;;;;7.07;93.32;100848.03;5089885;28;20052;-58
2021/11/21 01:55:48;;;;;;;45.72;29.88;;;;;;;7.04;93.13;100847.47;5089005;28;20052;-52
2021/11/21 01:58:16;;;;;;;46.33;29.98;;;;;;;7.02;93.49;100842.38;5089458;28;20048;-51
2021/11/21 02:00:47;;;;;;;49.22;30.30;;;;;;;7.15;93.46;100847.34;5089902;28;20450;-52
2021/11/21 02:03:14;;;;;;;46.78;30.38;;;;;;;7.14;93.84;100837.91;5089962;28;20052;-50
2021/11/21 02:05:41;;;;;;;46.10;29.30;;;;;;;7.12;93.52;100821.59;5088795;28;20052;-53
2021/11/21 02:08:09;;;;;;;49.20;31.02;;;;;;;7.08;93.41;100810.66;5091439;28;20056;-50
2021/11/21 02:10:36;;;;;;;47.78;28.85;;;;;;;7.17;93.80;100804.63;5093646;28;20048;-50
2021/11/21 02:13:06;;;;;;;52.67;30.67;;;;;;;7.11;93.78;100804.31;5093522;28;20083;-53
2021/11/21 02:15:35;;;;;;;51.15;29.88;;;;;;;7.08;93.43;100805.44;5092589;28;20507;-55
2021/11/21 02:18:04;;;;;;;49.22;30.08;;;;;;;7.05;94.08;100812.69;5092214;28;20460;-51
2021/11/21 02:20:49;;;;;;;50.20;30.85;;;;;;;7.01;94.19;100811.28;5093309;28;20278;-47
2021/11/21 02:23:16;;;;;;;51.70;31.95;;;;;;;7.04;94.29;100817.06;5093316;28;20048;-51
2021/11/21 02:25:44;;;;;;;50.20;31.52;;;;;;;7.03;93.79;100804.19;5092336;28;20346;-54
2021/11/21 02:28:12;;;;;;;49.97;31.70;;;;;;;7.03;94.20;100802.41;5092602;28;20491;-56
2021/11/21 02:30:42;;;;;;;48.15;31.58;;;;;;;7.08;93.94;100802.84;5092823;28;20074;-51
2021/11/21 02:35:39;;;;;;;53.85;32.78;;;;;;;6.98;93.99;100797.56;5060865;28;20041;-50
2021/11/21 02:38:09;;;;;;;52.72;32.65;;;;;;;7.06;94.05;100783.94;5073920;28;20423;-52
2021/11/21 02:40:37;;;;;;;50.78;32.95;;;;;;;6.92;94.22;100774.69;5047558;28;20057;-55
2021/11/21 02:43:03;;;;;;;51.15;30.88;;;;;;;6.98;94.53;100784.56;5035084;28;20045;-53
2021/11/21 02:45:30;;;;;;;60.70;33.50;;;;;;;6.92;94.81;100777.28;5052720;28;20057;-51
2021/11/21 02:47:57;;;;;;;62.47;35.00;;;;;;;6.88;95.19;100775.88;5053523;28;20502;-52
2021/11/21 02:50:25;;;;;;;57.65;35.60;;;;;;;6.81;95.72;100777.34;5053753;28;20057;-49
2021/11/21 02:52:57;;;;;;;61.45;35.10;;;;;;;6.84;95.96;100771.88;5053888;28;20423;-51
2021/11/21 02:55:28;;;;;;;61.42;35.50;;;;;;;6.87;95.94;100773.41;5053271;28;20053;-51
2021/11/21 02:57:55;;;;;;;59.35;33.08;;;;;;;6.83;95.72;100772.84;5053371;28;20083;-53
2021/11/21 03:00:22;;;;;;;62.60;35.30;;;;;;;6.82;95.99;100776.41;5053734;28;20073;-55
2021/11/21 03:02:49;;;;;;;62.58;34.65;;;;;;;6.82;95.85;100773.78;5053807;28;20111;-54
2021/11/21 03:05:19;;;;;;;58.72;32.58;;;;;;;6.81;96.23;100766.13;5053696;28;20048;-50
2021/11/21 03:07:47;;;;;;;58.00;32.70;;;;;;;6.80;96.49;100765.28;5053423;28;20099;-51
2021/11/21 03:10:18;;;;;;;62.97;34.15;;;;;;;6.79;96.57;100771.44;5053232;28;20103;-51
2021/11/21 03:12:47;;;;;;;62.60;34.97;;;;;;;6.75;96.58;100762.25;5053687;28;20049;-52
2021/11/21 03:15:14;;;;;;;59.88;33.83;;;;;;;6.77;96.90;100762.94;5053103;28;20045;-54
2021/11/21 03:17:43;;;;;;;68.15;34.70;;;;;;;6.76;96.94;100756.09;5053235;28;20485;-49
2021/11/21 03:20:11;;;;;;;68.65;34.70;;;;;;;6.76;96.89;100752.66;5052980;28;20093;-52
2021/11/21 03:22:38;;;;;;;73.30;36.88;;;;;;;6.75;97.50;100754.44;5053308;28;20617;-52
2021/11/21 03:25:05;;;;;;;60.33;33.53;;;;;;;6.80;97.12;100744.50;5053162;28;20085;-52
2021/11/21 03:27:33;;;;;;;61.28;33.75;;;;;;;6.75;96.90;100751.03;5052964;28;20055;-54
2021/11/21 03:30:01;;;;;;;70.57;36.25;;;;;;;6.71;97.35;100745.25;5053102;28;20076;-52
2021/11/21 03:32:28;;;;;;;68.90;35.83;;;;;;;6.82;97.12;100742.59;5053226;28;20707;-52
2021/11/21 03:34:56;;;;;;;70.90;37.08;;;;;;;6.78;97.28;100733.38;5052771;28;20087;-50
2021/11/21 03:37:23;;;;;;;64.82;35.20;;;;;;;6.79;96.95;100729.00;5052969;28;20064;-51
2021/11/21 03:39:52;;;;;;;67.57;36.42;;;;;;;6.82;96.44;100729.56;5052640;28;20075;-51
2021/11/21 03:42:19;;;;;;;64.15;36.72;;;;;;;6.75;96.64;100723.25;5052992;28;20045;-53
2021/11/21 03:44:46;;;;;;;64.03;35.40;;;;;;;6.78;96.85;100733.38;5052650;28;20076;-52
2021/11/21 03:47:15;;;;;;;65.25;35.88;;;;;;;6.84;96.28;100722.47;5052823;28;20419;-55
2021/11/21 03:49:42;;;;;;;62.50;35.92;;;;;;;6.81;96.46;100725.31;5052540;28;20080;-52
2021/11/21 03:52:09;;;;;;;61.63;35.15;;;;;;;6.74;96.18;100728.56;5052873;28;20041;-54
2021/11/21 03:54:36;;;;;;;62.38;36.90;;;;;;;6.73;96.91;100721.72;5053201;28;20477;-55
2021/11/21 03:57:04;;;;;;;62.75;35.15;;;;;;;6.78;96.36;100720.38;5054082;28;20049;-52
2021/11/21 03:59:32;;;;;;;58.95;34.42;;;;;;;6.75;96.45;100719.81;5052857;28;20517;-55
2021/11/21 04:02:01;;;;;;;59.67;33.42;;;;;;;6.78;96.37;100714.34;5052514;28;20053;-55
2021/11/21 04:04:30;;;;;;;61.92;33.53;;;;;;;6.82;96.51;100721.78;5052649;28;20445;-55
2021/11/21 04:06:58;;;;;;;59.45;34.38;;;;;;;6.79;95.98;100711.63;5052379;28;20055;-54
2021/11/21 04:09:24;;;;;;;59.95;33.40;;;;;;;6.82;96.28;100707.94;5052675;28;20084;-52
2021/11/21 04:11:53;;;;;;;59.00;33.25;;;;;;;6.87;96.11;100704.00;5052683;28;20099;-54
2021/11/21 04:14:20;;;;;;;56.30;32.95;;;;;;;6.90;95.82;100702.91;5052595;28;20079;-54
2021/11/21 04:16:48;;;;;;;59.47;33.95;;;;;;;6.84;95.87;100688.66;5052630;28;20472;-58
2021/11/21 04:19:14;;;;;;;59.83;33.75;;;;;;;6.81;96.33;100691.53;5052212;28;20511;-51
2021/11/21 04:21:42;;;;;;;53.28;33.05;;;;;;;6.85;96.15;100685.09;5052836;28;20084;-54
2021/11/21 04:24:13;;;;;;;56.63;32.70;;;;;;;6.86;96.04;100686.75;5052197;28;20094;-51
2021/11/21 04:26:41;;;;;;;54.72;33.10;;;;;;;6.81;95.92;100694.13;5051757;28;20049;-51
2021/11/21 04:29:08;;;;;;;56.33;32.28;;;;;;;6.81;96.14;100681.13;5051787;28;20057;-53
2021/11/21 04:31:35;;;;;;;57.40;31.77;;;;;;;6.84;95.96;100675.66;5051214;28;20075;-52
2021/11/21 04:34:01;;;;;;;55.88;31.60;;;;;;;6.81;95.88;100673.31;5051649;28;20044;-54
2021/11/21 04:36:30;;;;;;;49.58;29.42;;;;;;;6.93;96.07;100669.66;5052014;28;20076;-54
2021/11/21 04:38:58;;;;;;;53.75;31.48;;;;;;;6.88;96.11;100668.41;5051600;28;20128;-53
2021/11/21 04:41:26;;;;;;;51.58;30.00;;;;;;;6.84;95.46;100667.03;5051636;28;20071;-53
2021/11/21 04:43:53;;;;;;;57.72;35.63;;;;;;;6.89;95.52;100665.69;5051773;28;20052;-52
2021/11/21 04:46:22;;;;;;;48.05;29.35;;;;;;;6.93;95.76;100661.03;5051811;28;20087;-53
2021/11/21 04:48:48;;;;;;;44.88;28.05;;;;;;;6.88;95.35;100658.84;5052199;28;20126;-56
2021/11/21 04:51:15;;;;;;;45.30;27.67;;;;;;;6.83;95.55;100663.59;5052615;28;20102;-55
2021/11/21 04:53:42;;;;;;;47.70;26.85;;;;;;;6.87;95.65;100667.59;5051790;28;20084;-54
2021/11/21 04:56:12;;;;;;;46.13;27.98;;;;;;;6.86;95.76;100665.13;5051597;28;20481;-53
2021/11/21 04:58:39;;;;;;;43.65;27.95;;;;;;;6.83;95.82;100663.59;5051363;28;20060;-53
2021/11/21 05:01:06;;;;;;;42.58;26.40;;;;;;;6.89;95.32;100662.25;5051360;28;20504;-53
2021/11/21 05:03:32;;;;;;;46.97;28.38;;;;;;;6.87;95.22;100662.38;5051520;28;20048;-52
2021/11/21 05:05:59;;;;;;;42.92;26.85;;;;;;;6.84;95.60;100652.25;5051248;28;20049;-52
2021/11/21 05:08:26;;;;;;;45.58;27.38;;;;;;;6.91;95.38;100653.38;5050951;28;20045;-59
2021/11/21 05:10:56;;;;;;;45.95;27.85;;;;;;;6.84;95.45;100656.63;5051492;28;20499;-54
2021/11/21 05:13:24;;;;;;;46.97;28.15;;;;;;;6.90;95.46;100653.50;5053983;28;20136;-58
2021/11/21 05:15:52;;;;;;;44.67;27.00;;;;;;;6.87;95.52;100648.56;5070132;28;20071;-53
2021/11/21 05:18:27;;;;;;;42.92;25.67;;;;;;;6.92;95.33;100634.22;5052796;28;20067;-57
2021/11/21 05:20:54;;;;;;;45.38;28.77;;;;;;;6.98;95.39;100641.47;5049631;28;20045;-55
2021/11/21 05:23:23;;;;;;;43.42;26.30;;;;;;;7.01;95.71;100637.78;5050589;28;20223;-56
2021/11/21 05:25:50;;;;;;;39.60;25.15;;;;;;;6.95;95.62;100638.31;5049501;28;20055;-57
2021/11/21 05:28:22;;;;;;;40.33;24.48;;;;;;;7.05;95.57;100630.56;5048392;28;20478;-57
2021/11/21 05:30:51;;;;;;;43.28;26.10;;;;;;;6.97;95.30;100626.81;5048959;28;20141;-58
2021/11/21 05:33:19;;;;;;;39.33;25.08;;;;;;;6.92;95.02;100629.00;5050053;28;20064;-54
2021/11/21 05:35:46;;;;;;;38.65;24.20;;;;;;;6.96;95.12;100634.75;5049524;28;20483;-54
2021/11/21 05:38:13;;;;;;;38.83;23.63;;;;;;;6.93;95.39;100625.44;5049934;28;20088;-53
2021/11/21 05:40:44;;;;;;;39.28;23.27;;;;;;;6.86;95.34;100629.53;5048664;28;20090;-53
2021/11/21 05:43:11;;;;;;;39.92;23.60;;;;;;;6.81;95.32;100638.69;5052528;28;20076;-55
2021/11/21 05:45:38;;;;;;;35.95;22.17;;;;;;;6.92;95.30;100636.81;5053193;28;20118;-52
2021/11/21 05:48:08;;;;;;;37.55;23.10;;;;;;;6.91;94.75;100635.16;5053746;28;20086;-53
2021/11/21 05:50:35;;;;;;;36.60;23.02;;;;;;;6.86;95.30;100642.53;5054210;28;20511;-50
2021/11/21 05:53:01;;;;;;;35.50;22.05;;;;;;;6.93;94.83;100641.06;5056842;28;20083;-55
2021/11/21 05:55:28;;;;;;;38.35;23.20;;;;;;;6.88;95.24;100635.41;5072358;28;20134;-52
2021/11/21 05:57:55;;;;;;;38.28;22.40;;;;;;;6.83;95.11;100640.19;5072812;28;20084;-56
2021/11/21 06:00:24;;;;;;;35.70;23.15;;;;;;;6.87;95.33;100636.38;5073832;28;20080;-56
2021/11/21 06:02:53;;;;;;;36.70;21.63;;;;;;;6.91;95.29;100636.94;5072079;28;20080;-55
2021/11/21 06:05:22;;;;;;;34.92;22.23;;;;;;;6.84;95.49;100631.44;5052438;28;20091;-58
2021/11/21 06:07:49;;;;;;;35.80;22.27;;;;;;;6.93;94.97;100625.44;5023165;28;20058;-52
2021/11/21 06:10:18;;;;;;;36.05;22.92;;;;;;;6.84;95.19;100621.03;4995160;28;20475;-52
2021/11/21 06:12:45;;;;;;;37.65;23.63;;;;;;;6.82;95.05;100616.91;4993023;28;20154;-58
2021/11/21 06:15:12;;;;;;;36.50;22.88;;;;;;;6.77;95.73;100617.31;4994156;28;20058;-52
2021/11/21 06:17:40;;;;;;;36.95;21.48;;;;;;;6.82;95.22;100615.13;4995169;28;20047;-52
2021/11/21 06:20:10;;;;;;;36.05;21.65;;;;;;;6.79;95.50;100615.41;4994615;28;20051;-52
2021/11/21 06:22:38;;;;;;;34.25;20.65;;;;;;;6.74;95.65;100598.53;4994271;28;20145;-52
2021/11/21 06:25:11;;;;;;;36.33;22.55;;;;;;;6.79;95.76;100598.97;4994126;28;20138;-55
2021/11/21 06:27:39;;;;;;;38.58;23.00;;;;;;;6.78;95.41;100594.72;4994148;28;20054;-55
2021/11/21 06:30:07;;;;;;;34.30;20.70;;;;;;;6.77;95.59;100596.50;4994193;28;20463;-54
2021/11/21 06:32:35;;;;;;;32.97;21.52;;;;;;;6.82;95.33;100604.72;4994028;28;20046;-51
2021/11/21 06:35:02;;;;;;;32.53;20.98;;;;;;;6.85;95.17;100595.84;4994684;28;20085;-50
2021/11/21 06:37:29;;;;;;;31.88;21.15;;;;;;;6.82;95.15;100594.31;4994765;28;20061;-58
2021/11/21 06:39:57;;;;;;;35.15;21.83;;;;;;;6.80;95.44;100593.63;4994637;28;20051;-54
2021/11/21 06:42:29;;;;;;;36.58;22.65;;;;;;;6.78;95.50;100587.75;4994747;28;20104;-51
2021/11/21 06:44:56;;;;;;;34.67;22.23;;;;;;;6.83;95.28;100588.16;4994629;28;20047;-53
2021/11/21 06:47:23;;;;;;;32.35;20.77;;;;;;;6.86;95.10;100587.09;4994465;28;20491;-50
2021/11/21 06:49:50;;;;;;;35.25;22.67;;;;;;;6.88;95.18;100583.41;4994568;28;20132;-53
2021/11/21 06:52:18;;;;;;;37.47;22.88;;;;;;;6.82;95.34;100590.91;4994605;28;20050;-50
2021/11/21 06:54:48;;;;;;;37.78;24.17;;;;;;;6.83;94.95;100584.75;4993993;28;20054;-55
2021/11/21 06:57:16;;;;;;;33.60;22.70;;;;;;;6.83;95.18;100595.16;4994308;28;20090;-51
2021/11/21 06:59:43;;;;;;;39.42;23.33;;;;;;;6.85;94.80;100596.66;4994376;28;20089;-52
2021/11/21 07:02:10;;;;;;;34.67;22.90;;;;;;;6.91;95.02;100590.94;4994548;28;20089;-52
2021/11/21 07:04:36;;;;;;;36.47;22.70;;;;;;;6.91;94.81;100600.53;4993635;28;20042;-51
2021/11/21 07:07:09;;;;;;;38.20;23.98;;;;;;;6.88;94.56;100598.19;4994224;28;20145;-51
2021/11/21 07:09:35;;;;;;;35.25;23.70;;;;;;;6.90;94.54;100599.69;4994046;28;20104;-53
2021/11/21 07:12:03;;;;;;;34.20;23.38;;;;;;;6.85;94.81;100599.28;4994521;28;20148;-54
2021/11/21 07:14:31;;;;;;;36.60;23.20;;;;;;;6.89;94.62;100590.25;4993914;28;20100;-55
2021/11/21 07:17:00;;;;;;;36.22;23.90;;;;;;;6.93;94.51;100593.41;4994357;28;20485;-53
2021/11/21 07:19:27;;;;;;;42.38;25.67;;;;;;;6.94;94.61;100585.47;4994200;28;20128;-51
2021/11/21 07:21:56;;;;;;;39.28;25.35;;;;;;;6.96;94.48;100583.56;4994366;28;20133;-51
2021/11/21 07:24:24;;;;;;;47.47;29.63;;;;;;;7.06;94.13;100586.19;4993751;28;20046;-52
2021/11/21 07:26:51;;;;;;;40.28;23.85;;;;;;;7.04;93.90;100579.47;4994036;28;20295;-53
2021/11/21 07:29:18;;;;;;;37.42;23.77;;;;;;;6.96;94.09;100573.16;4993878;28;20050;-59
2021/11/21 07:31:49;;;;;;;39.30;24.92;;;;;;;6.96;94.38;100583.56;4993988;28;20506;-57
2021/11/21 07:34:18;;;;;;;41.83;25.13;;;;;;;7.02;94.05;100583.97;4993864;28;20118;-54
2021/11/21 07:36:45;;;;;;;41.38;25.02;;;;;;;6.98;94.54;100583.44;4993818;28;20078;-57
2021/11/21 07:39:12;;;;;;;40.95;25.13;;;;;;;6.95;94.69;100575.88;4993801;28;20050;-55
2021/11/21 07:41:39;;;;;;;37.85;23.77;;;;;;;7.00;94.31;100586.72;4993673;28;20088;-51
2021/11/21 07:44:09;;;;;;;39.30;25.23;;;;;;;6.99;94.61;100578.09;4993901;28;20148;-54
2021/11/21 07:46:38;;;;;;;41.05;23.92;;;;;;;6.98;94.27;100581.66;4993928;28;20077;-52
2021/11/21 07:49:07;;;;;;;41.72;24.58;;;;;;;7.02;94.39;100592.63;4994441;28;20049;-53
2021/11/21 07:51:35;;;;;;;41.25;25.25;;;;;;;7.05;94.14;100588.91;4993555;28;20049;-52
2021/11/21 07:54:02;;;;;;;40.78;23.65;;;;;;;6.98;94.19;100592.06;4993472;28;20090;-52
2021/11/21 07:56:29;;;;;;;41.25;24.40;;;;;;;6.99;93.86;100592.88;4993368;28;20054;-54
2021/11/21 07:58:56;;;;;;;46.20;25.13;;;;;;;7.04;93.69;100589.88;4993435;28;20393;-53
2021/11/21 08:01:25;;;;;;;40.65;24.83;;;;;;;7.05;94.02;100596.72;4993476;28;20124;-53
2021/11/21 08:03:52;;;;;;;42.88;25.02;;;;;;;7.08;94.14;100599.06;4993215;28;20365;-53
2021/11/21 08:06:22;;;;;;;41.60;24.13;;;;;;;7.10;94.41;100604.94;4992384;28;20050;-54
2021/11/21 08:08:51;;;;;;;40.90;24.67;;;;;;;7.09;93.73;100609.31;4992885;28;20086;-52
2021/11/21 08:11:18;;;;;;;41.50;24.23;;;;;;;7.10;94.27;100610.13;4993289;28;20097;-50
2021/11/21 08:13:45;;;;;;;40.78;24.35;;;;;;;7.12;94.08;100613.41;4992966;28;20089;-54
2021/11/21 08:16:11;;;;;;;43.13;24.65;;;;;;;7.17;94.18;100606.03;4992763;28;20104;-53
2021/11/21 08:18:38;;;;;;;41.10;23.38;;;;;;;7.14;94.64;100612.34;4992927;28;20094;-54
2021/11/21 08:21:05;;;;;;;40.47;23.38;;;;;;;7.10;94.43;100615.31;4993886;28;20054;-52
2021/11/21 08:23:33;;;;;;;42.35;24.10;;;;;;;7.01;95.17;100621.34;4993633;28;20054;-54
2021/11/21 08:25:59;;;;;;;43.47;25.35;;;;;;;6.94;95.58;100619.28;4992661;28;20393;-51
2021/11/21 08:28:26;;;;;;;41.60;23.88;;;;;;;6.96;96.15;100624.34;4992749;28;20063;-53
2021/11/21 08:30:53;;;;;;;49.55;25.33;;;;;;;6.89;96.60;100618.03;4992780;28;20079;-54
2021/11/21 08:33:20;;;;;;;47.28;25.98;;;;;;;6.84;96.90;100622.81;5006795;23;20136;-48
2021/11/21 08:35:46;;;;;;;48.65;26.45;;;;;;;6.97;97.01;100611.22;4978323;28;20085;-49
2021/11/21 08:38:14;;;;;;;47.95;27.00;;;;;;;6.92;96.91;100621.19;4972446;28;20097;-49
2021/11/21 08:40:43;;;;;;;45.13;26.65;;;;;;;7.01;96.92;100621.34;4972984;28;20055;-51
2021/11/21 08:43:10;;;;;;;49.65;25.98;;;;;;;7.02;97.07;100617.81;4972741;28;20411;-51
2021/11/21 08:45:37;;;;;;;52.22;27.48;;;;;;;7.01;97.13;100619.59;4972496;28;20074;-55
2021/11/21 08:48:04;;;;;;;50.42;27.20;;;;;;;7.03;96.87;100615.06;4972362;28;20082;-52
2021/11/21 08:50:31;;;;;;;45.97;26.67;;;;;;;7.08;96.74;100617.28;4972736;28;20577;-54
2021/11/21 08:52:59;;;;;;;49.03;26.63;;;;;;;7.02;96.78;100610.00;4972585;28;20377;-50
2021/11/21 08:55:26;;;;;;;47.45;26.52;;;;;;;7.02;97.12;100608.22;4972457;28;20500;-55
2021/11/21 08:57:55;;;;;;;46.08;26.10;;;;;;;7.06;96.78;100609.59;4972087;28;20137;-49
2021/11/21 09:00:22;;;;;;;49.33;26.52;;;;;;;7.10;97.17;100620.53;4972540;28;20054;-51
2021/11/21 09:02:49;;;;;;;44.78;24.73;;;;;;;7.10;96.88;100607.53;4972636;28;20047;-53
2021/11/21 09:05:17;;;;;;;39.42;22.30;;;;;;;7.02;96.71;100612.59;4972314;28;20065;-50
2021/11/21 09:07:45;;;;;;;38.40;23.42;;;;;;;6.98;96.88;100612.03;4972534;28;20101;-50
2021/11/21 09:10:15;;;;;;;41.35;23.48;;;;;;;6.99;96.59;100609.31;4972066;28;20509;-49
2021/11/21 09:12:43;;;;;;;40.03;22.35;;;;;;;7.00;96.72;100610.13;4972047;28;20101;-51
2021/11/21 09:15:14;;;;;;;37.75;21.45;;;;;;;6.92;96.88;100608.19;4971801;28;20102;-51
2021/11/21 09:17:42;;;;;;;41.40;22.85;;;;;;;6.92;97.25;100612.56;4971591;28;20134;-54
2021/11/21 09:20:10;;;;;;;47.20;23.60;;;;;;;6.96;96.91;100608.75;4971970;28;20073;-48
2021/11/21 09:22:37;;;;;;;47.92;24.52;;;;;;;6.93;97.43;100615.03;4972216;28;20521;-54
2021/11/21 09:25:05;;;;;;;47.85;24.05;;;;;;;6.94;97.81;100613.25;4972305;28;20412;-52
2021/11/21 09:27:32;;;;;;;49.28;24.98;;;;;;;7.08;97.59;100614.66;4971904;28;20091;-51
2021/11/21 09:29:59;;;;;;;51.40;25.95;;;;;;;7.06;97.89;100613.97;4971994;28;20050;-50
2021/11/21 09:32:27;;;;;;;50.75;26.35;;;;;;;7.11;97.31;100627.38;4972265;28;20145;-51
2021/11/21 09:34:54;;;;;;;47.85;26.42;;;;;;;7.14;97.42;100633.16;4971359;28;20086;-56
2021/11/21 09:37:21;;;;;;;47.28;23.60;;;;;;;7.24;97.10;100635.78;4971409;28;20469;-47
2021/11/21 09:39:48;;;;;;;39.45;20.73;;;;;;;7.27;97.02;100627.69;4971680;28;20098;-51
2021/11/21 09:42:15;;;;;;;41.13;22.42;;;;;;;7.32;96.72;100625.53;4972058;28;20105;-51
2021/11/21 09:44:42;;;;;;;36.83;20.55;;;;;;;7.38;96.27;100627.59;4972135;28;20058;-52
2021/11/21 09:47:09;;;;;;;34.78;20.65;;;;;;;7.38;96.00;100617.16;4972054;28;20121;-53
2021/11/21 09:49:37;;;;;;;32.80;17.33;;;;;;;7.44;95.75;100619.25;4971692;28;20058;-51
2021/11/21 09:52:05;;;;;;;29.55;17.42;;;;;;;7.52;95.61;100626.38;4971422;28;20082;-50
2021/11/21 09:54:33;;;;;;;31.52;17.98;;;;;;;7.44;95.73;100627.03;4970986;28;20047;-51
2021/11/21 09:57:01;;;;;;;33.10;18.33;;;;;;;7.56;95.24;100625.13;4970444;28;20113;-51
2021/11/21 09:59:56;;;;;;;27.80;17.33;;;;;;;7.73;94.55;100631.41;4967801;28;20340;-49
2021/11/21 10:02:29;;;;;;;28.70;16.38;;;;;;;7.63;94.08;100624.44;4965929;28;20050;-50
2021/11/21 10:04:59;;;;;;;24.92;14.85;;;;;;;7.75;94.38;100619.91;4969379;28;20067;-50
2021/11/21 10:07:28;;;;;;;26.27;16.45;;;;;;;7.75;94.34;100626.91;4971242;28;20062;-49
2021/11/21 10:09:56;;;;;;;24.08;15.20;;;;;;;7.81;94.62;100627.19;4967183;28;20051;-52
2021/11/21 10:12:24;;;;;;;24.95;14.70;;;;;;;7.99;94.41;100627.31;4963889;28;20047;-51
2021/11/21 10:14:59;;;;;;;23.00;14.88;;;;;;;7.94;94.43;100630.31;4960784;28;20153;-52
2021/11/21 10:17:26;;;;;;;22.42;14.80;;;;;;;7.97;94.27;100616.19;4961125;28;20138;-49
2021/11/21 10:20:09;;;;;;;21.92;14.57;;;;;;;7.95;93.80;100623.34;4970894;28;20057;-50
2021/11/21 10:22:52;;;;;;;24.45;15.93;;;;;;;7.84;94.19;100623.47;4970831;28;20129;-52
2021/11/21 10:25:39;;;;;;;24.35;15.75;;;;;;;7.89;94.18;100623.88;4965573;28;20118;-53
2021/11/21 10:28:07;;;;;;;23.65;15.50;;;;;;;7.95;94.23;100623.34;4958999;28;20051;-49
2021/11/21 10:30:35;;;;;;;25.17;16.45;;;;;;;7.95;94.23;100623.34;4965436;28;20055;-48
2021/11/21 10:33:03;;;;;;;27.05;16.80;;;;;;;7.98;94.25;100628.25;4969139;28;20110;-53
2021/11/21 10:35:33;;;;;;;26.38;16.58;;;;;;;8.04;94.29;100622.47;4974313;28;20101;-51
2021/11/21 10:38:00;;;;;;;26.73;17.63;;;;;;;8.10;94.24;100623.69;4974764;28;20050;-48
2021/11/21 10:40:30;;;;;;;27.42;17.52;;;;;;;8.11;94.16;100620.94;4974117;28;20085;-48
2021/11/21 10:42:57;;;;;;;27.05;17.02;;;;;;;8.10;93.86;100624.53;4974564;28;20051;-50
2021/11/21 10:45:26;;;;;;;25.42;15.80;;;;;;;8.12;93.75;100619.16;4969663;28;20038;-52
2021/11/21 10:47:55;;;;;;;23.38;14.73;;;;;;;8.24;93.83;100624.09;4966058;28;20659;-54
2021/11/21 10:50:29;;;;;;;22.83;14.57;;;;;;;8.15;93.68;100624.09;4968267;28;20051;-52
2021/11/21 10:52:59;;;;;;;21.80;14.40;;;;;;;8.20;93.77;100621.91;4967163;28;20059;-51
2021/11/21 10:55:26;;;;;;;24.52;15.55;;;;;;;8.27;93.64;100620.38;4966818;28;20043;-48
2021/11/21 10:57:53;;;;;;;22.55;14.73;;;;;;;8.29;93.67;100627.09;4972386;28;20090;-48
2021/11/21 11:00:21;;;;;;;22.33;14.82;;;;;;;8.26;94.06;100631.75;4972725;28;20054;-49
2021/11/21 11:02:48;;;;;;;23.02;14.82;;;;;;;8.27;93.66;100625.59;4969969;28;20476;-51
2021/11/21 11:05:21;;;;;;;25.58;14.73;;;;;;;8.34;93.83;100616.28;4973082;28;20109;-53
2021/11/21 11:07:53;;;;;;;22.70;15.13;;;;;;;8.42;93.51;100628.59;4972923;28;20572;-49
2021/11/21 11:10:23;;;;;;;;;;;;;;;8.32;94.00;100624.25;4972063;28;20513;-52
2021/11/21 11:12:53;;;;;;;25.67;15.38;;;;;;;8.38;93.91;100619.41;4970411;28;19929;-48
2021/11/21 11:15:21;;;;;;;26.63;16.42;;;;;;;8.30;93.62;100623.53;4969187;28;20051;-53
2021/11/21 11:17:49;;;;;;;25.08;16.58;;;;;;;8.39;93.38;100621.06;4969411;28;20078;-52
2021/11/21 11:20:18;;;;;;;22.33;15.02;;;;;;;8.29;93.67;100621.88;4969962;28;20125;-50
2021/11/21 11:22:46;;;;;;;26.17;15.52;;;;;;;8.27;94.06;100621.19;4971130;28;20125;-52
2021/11/21 11:25:16;;;;;;;26.00;14.88;;;;;;;8.30;94.12;100618.31;4973056;28;20125;-53